• Join FlightAware (Why Join?)
  • Login
  • US Flag 
12:25AM EDT


 

Airport Tracker/Info


-or-


 

Live Flight TrackerFlight Track Log ✈ SWA861 ✈ 08-Jun-2013 ✈ KFLL - KLAS

Flight Track Log - Related Links

Times and Time Zones

All times are in EDT time to prevent confusion due to time zone crossing. See the SWA861 flight status page for this flight to view local times or setup timezone preferences in your user account.

Time Position Orientation Groundspeed Altitude Reporting Facility
EDT Latitude Longitude Course Direction KTS MPH feet Rate Location/Type
05:08PM 26.0750 -80.1344 102° East 171 197 800  Level Miami Center
05:09PM 26.0600 -80.0531 102° East 236 272 3,500 2,040 Climbing Miami Center
05:10PM 25.9997 -80.0444 173° South 274 315 5,700 2,640 Climbing Miami Center
05:11PM 25.9242 -80.0608 191° South 285 328 8,700 2,880 Climbing Miami Center
05:12PM 25.8442 -80.0842 195° South 290 334 11,500 2,580 Climbing Miami Center
05:13PM 25.7539 -80.1094 194° South 318 366 13,900 2,160 Climbing Miami Center
05:14PM 25.6719 -80.1350 196° South 330 380 15,900 2,100 Climbing Miami Center
05:15PM 25.6014 -80.2067 222° Southwest 339 390 18,100 2,100 Climbing Miami Center
05:16PM 25.5592 -80.3139 246° West 345 397 20,200 2,100 Climbing Miami Center
05:17PM 25.5517 -80.4539 267° West 402 463 22,300 1,980 Climbing Miami Center
05:18PM 25.5425 -80.5667 265° West 410 472 24,200 1,920 Climbing Miami Center
05:19PM 25.5472 -80.7025 272° West 410 472 26,200 1,440 Climbing Miami Center
05:20PM 25.5775 -80.8303 285° West 416 479 27,100 900 Climbing Miami Center
05:21PM 25.6133 -80.9650 286° West 435 501 28,000 1,020 Climbing Miami Center
05:22PM 25.6575 -81.1000 290° West 455 524 29,200 1,260 Climbing Miami Center
05:23PM 25.7164 -81.2289 297° West 463 533 30,600 1,380 Climbing Miami Center
05:24PM 25.7753 -81.3556 297° West 463 533 32,000 1,320 Climbing Miami Center
05:25PM 25.8361 -81.4803 298° West 469 540 33,300 1,200 Climbing Miami Center
05:26PM 25.8925 -81.6069 296° West 464 534 34,500 1,200 Climbing Miami Center
05:27PM 25.9489 -81.7339 296° West 457 526 35,800 720 Climbing Miami Center
05:28PM 26.0075 -81.8589 298° West 452 520 36,000 60 Climbing Miami Center
05:29PM 26.0617 -81.9836 296° West 452 520 36,000  Level Miami Center
05:30PM 26.1242 -82.1042 300° West 452 520 36,000  Level Miami Center
05:31PM 26.1781 -82.2292 296° West 452 520 36,000  Level Miami Center
05:32PM 26.2236 -82.3469 293° West 452 520 36,000  Level Miami Center
05:33PM 26.2797 -82.4675 297° West 452 520 36,000  Level Miami Center
05:34PM 26.3353 -82.5953 296° West 452 520 36,000  Level Miami Center
05:35PM 26.3928 -82.7208 297° West 452 520 36,000  Level Miami Center
05:36PM 26.4483 -82.8467 296° West 457 526 36,000  Level Miami Center
05:37PM 26.5036 -82.9722 296° West 452 520 36,000  Level Miami Center
05:38PM 26.5608 -83.0958 297° West 452 520 36,000  Level Miami Center
05:39PM 26.6181 -83.2242 297° West 458 527 36,000  Level Miami Center
05:40PM 26.6731 -83.3481 296° West 458 527 36,000  Level Miami Center
05:41PM 26.7300 -83.4744 297° West 453 521 36,000  Level Miami Center
05:42PM 26.7825 -83.5981 295° West 453 521 36,000  Level Miami Center
05:43PM 26.8414 -83.7247 298° West 453 521 36,000  Level Miami Center
05:44PM 26.8919 -83.8464 295° West 453 521 36,000  Level Miami Center
05:45PM 26.9442 -83.9706 295° West 448 516 36,000  Level Miami Center
05:46PM 27.0067 -84.0956 299° West 448 516 36,000  Level Miami Center
05:47PM 27.0675 -84.2156 300° West 448 516 36,000  Level Miami Center
05:48PM 27.1322 -84.3364 301° West 448 516 36,000  Level Miami Center
05:50PM 27.2239 -84.5278 298° West 443 510 36,000  Level Jacksonville Center
05:51PM 27.3000 -84.6692 301° West 440 506 36,000  Level Houston Center
05:52PM 27.3603 -84.7886 300° West 439 505 36,000  Level Houston Center
05:53PM 27.4256 -84.9147 300° West 441 507 36,000  Level Houston Center
05:54PM 27.4861 -85.0347 300° West 438 504 36,000  Level Houston Center
05:55PM 27.5336 -85.1386 297° West 442 509 36,000  Level Jacksonville Center
05:56PM 27.5942 -85.2525 301° West 437 503 36,000  Level Jacksonville Center
05:57PM 27.6544 -85.3756 299° West 437 503 36,000  Level Jacksonville Center
05:58PM 27.7147 -85.4967 299° West 437 503 36,000  Level Jacksonville Center
05:59PM 27.7747 -85.6153 300° West 443 510 36,000  Level Jacksonville Center
06:00PM 27.8350 -85.7319 300° West 435 501 36,000  Level Jacksonville Center
06:01PM 27.8947 -85.8581 298° West 435 501 36,000  Level Jacksonville Center
06:02PM 27.9544 -85.9772 300° West 440 506 36,000  Level Jacksonville Center
06:03PM 28.0119 -86.0964 299° West 440 506 36,000  Level Jacksonville Center
06:04PM 28.0736 -86.2161 300° West 440 506 36,000  Level Jacksonville Center
06:05PM 28.1369 -86.3475 299° West 446 513 36,000  Level Jacksonville Center
06:06PM 28.1964 -86.4672 299° West 446 513 36,000  Level Jacksonville Center
06:07PM 28.2575 -86.5897 300° West 452 520 36,000  Level Jacksonville Center
06:08PM 28.3183 -86.7167 299° West 459 528 36,000  Level Jacksonville Center
06:09PM 28.3794 -86.8369 300° West 454 522 36,000  Level Jacksonville Center
06:10PM 28.4403 -86.9622 299° West 454 522 36,000  Level Jacksonville Center
06:11PM 28.4989 -87.0850 299° West 448 516 36,000  Level Jacksonville Center
06:11PM 28.5433 -87.1803 298° West 448 516 36,000  Level Houston Center
06:12PM 28.6025 -87.3042 299° West 446 513 36,000  Level Houston Center
06:14PM 28.6622 -87.4275 299° West 447 514 36,000  Level Houston Center
06:15PM 28.7211 -87.5533 298° West 449 517 36,000  Level Houston Center
06:16PM 28.7803 -87.6786 298° West 449 517 36,000  Level Houston Center
06:17PM 28.8406 -87.8050 299° West 453 521 36,000  Level Houston Center
06:18PM 28.9008 -87.9317 299° West 454 522 36,000  Level Houston Center
06:19PM 28.9592 -88.0569 298° West 449 517 36,000  Level Houston Center
06:20PM 29.0197 -88.1858 298° West 444 511 36,000  Level Houston Center
06:21PM 29.0758 -88.3117 297° West 444 511 36,000  Level Houston Center
06:22PM 29.1433 -88.4594 298° West 438 504 36,000  Level Houston Center
06:23PM 29.1986 -88.5844 297° West 440 506 36,000  Level Houston Center
06:24PM 29.2544 -88.7075 298° West 437 503 36,000  Level Houston Center
06:25PM 29.3100 -88.8317 297° West 436 502 36,000  Level Houston Center
06:26PM 29.3656 -88.9539 298° West 433 498 36,000  Level Houston Center
06:27PM 29.4203 -89.0783 297° West 436 502 36,000  Level Houston Center
06:28PM 29.4750 -89.2017 297° West 434 499 36,000  Level Houston Center
06:29PM 29.5292 -89.3261 297° West 435 501 36,000  Level Houston Center
06:30PM 29.5944 -89.4733 297° West 431 496 36,000  Level Houston Center
06:31PM 29.6483 -89.5978 297° West 432 497 36,000  Level Houston Center
06:32PM 29.7017 -89.7217 296° West 432 497 36,000  Level Houston Center
06:33PM 29.7561 -89.8475 297° West 437 503 36,000  Level Houston Center
06:34PM 29.8114 -89.9725 297° West 437 503 36,000  Level Houston Center
06:35PM 29.8667 -90.0967 297° West 435 501 36,000  Level Houston Center
06:36PM 29.9189 -90.2214 296° West 431 496 36,000  Level Houston Center
06:37PM 29.9717 -90.3461 296° West 431 496 36,000  Level Houston Center
06:38PM 30.0333 -90.4664 301° West 432 497 36,000  Level Houston Center
06:39PM 30.1153 -90.6069 304° West 437 503 36,000  Level Houston Center
06:40PM 30.1789 -90.7244 302° West 433 498 36,000  Level Houston Center
06:41PM 30.2136 -90.8536 287° West 420 483 36,000  Level Houston Center
06:42PM 30.2364 -90.9847 281° West 415 478 36,000  Level Houston Center
06:43PM 30.2550 -91.1161 279° West 414 476 36,000  Level Houston Center
06:44PM 30.2753 -91.2464 280° West 411 473 36,000  Level Houston Center
06:45PM 30.2953 -91.3772 280° West 412 474 36,000  Level Houston Center
06:46PM 30.3142 -91.5067 280° West 408 470 36,000  Level Houston Center
06:47PM 30.3331 -91.6372 280° West 409 471 36,000  Level Houston Center
06:48PM 30.3556 -91.7886 280° West 407 468 36,000  Level Houston Center
06:49PM 30.3756 -91.9192 280° West 411 473 36,000  Level Houston Center
06:50PM 30.3967 -92.0492 281° West 410 472 36,000  Level Houston Center
06:51PM 30.4156 -92.1825 279° West 416 479 36,000  Level Houston Center
06:53PM 30.4467 -92.3125 286° West 417 480 36,000  Level Houston Center
06:54PM 30.5008 -92.4322 298° West 418 481 36,000  Level Houston Center
06:55PM 30.5550 -92.5531 298° West 421 484 36,000  Level Houston Center
06:56PM 30.6094 -92.6772 297° West 420 483 36,000  Level Houston Center
06:57PM 30.6722 -92.8197 297° West 416 479 36,000  Level Houston Center
06:58PM 30.7244 -92.9394 297° West 418 481 36,000  Level Houston Center
06:59PM 30.7772 -93.0578 297° West 416 479 36,000  Level Houston Center
07:00PM 30.8289 -93.1775 297° West 417 480 36,000  Level Houston Center
07:01PM 30.8806 -93.2958 297° West 413 475 36,000  Level Houston Center
07:02PM 30.9336 -93.4164 297° West 419 482 36,000  Level Houston Center
07:03PM 30.9861 -93.5378 297° West 423 487 36,000  Level Houston Center
07:04PM 31.0489 -93.6847 297° West 424 488 36,000  Level Houston Center
07:05PM 31.1017 -93.8083 297° West 426 490 36,000  Level Houston Center
07:06PM 31.1533 -93.9300 296° West 428 493 36,000  Level Houston Center
07:07PM 31.2067 -94.0544 297° West 427 491 36,000  Level Houston Center
07:08PM 31.2578 -94.1772 296° West 423 487 36,000  Level Houston Center
07:09PM 31.3208 -94.3253 297° West 424 488 36,000  Level Houston Center
07:10PM 31.3731 -94.4481 297° West 424 488 36,000  Level Houston Center
07:11PM 31.4247 -94.5700 296° West 424 488 36,000  Level Houston Center
07:12PM 31.4764 -94.6919 296° West 425 489 36,000  Level Houston Center
07:13PM 31.5261 -94.8156 295° West 425 489 36,000  Level Houston Center
07:14PM 31.5775 -94.9392 296° West 425 489 36,000  Level Houston Center
07:15PM 31.6392 -95.0894 296° West 428 493 36,000  Level Houston Center
07:16PM 31.6717 -95.1725 295° West 425 489 36,000  Level Fort Worth Center
07:17PM 31.7239 -95.3008 296° West 425 489 36,000  Level Fort Worth Center
07:18PM 31.7761 -95.4267 296° West 430 495 36,000  Level Fort Worth Center
07:19PM 31.8281 -95.5550 296° West 435 501 36,000  Level Fort Worth Center
07:20PM 31.8819 -95.6836 296° West 435 501 36,000  Level Fort Worth Center
07:21PM 31.9339 -95.8100 296° West 435 501 36,000  Level Fort Worth Center
07:22PM 31.9858 -95.9536 293° West 435 501 36,000  Level Fort Worth Center
07:23PM 32.0372 -96.0778 296° West 435 501 36,000  Level Fort Worth Center
07:24PM 32.0886 -96.2044 296° West 435 501 36,000  Level Fort Worth Center
07:25PM 32.1397 -96.3339 295° West 435 501 36,000  Level Fort Worth Center
07:26PM 32.1908 -96.4583 296° West 435 501 36,000  Level Fort Worth Center
07:27PM 32.2400 -96.5856 295° West 435 501 36,000  Level Fort Worth Center
07:28PM 32.2886 -96.7156 294° West 435 501 36,000  Level Fort Worth Center
07:29PM 32.3394 -96.8406 296° West 435 501 36,000  Level Fort Worth Center
07:30PM 32.3900 -96.9681 295° West 435 501 36,000  Level Fort Worth Center
07:31PM 32.4406 -97.0958 295° West 435 501 36,000  Level Fort Worth Center
07:32PM 32.4908 -97.2261 295° West 435 501 36,000  Level Fort Worth Center
07:33PM 32.5389 -97.3542 294° West 435 501 36,000  Level Fort Worth Center
07:34PM 32.5911 -97.4850 295° West 435 501 36,000  Level Fort Worth Center
07:35PM 32.6411 -97.6158 294° West 435 501 36,000  Level Fort Worth Center
07:36PM 32.6908 -97.7442 295° West 440 506 36,000  Level Fort Worth Center
07:37PM 32.7406 -97.8778 294° West 435 501 36,000  Level Fort Worth Center
07:38PM 32.7839 -97.9917 294° West 435 501 36,000  Level Fort Worth Center
07:39PM 32.8356 -98.1206 296° West 435 501 36,000  Level Fort Worth Center
07:40PM 32.8828 -98.2494 294° West 435 501 36,000  Level Fort Worth Center
07:41PM 32.9319 -98.3836 294° West 440 506 36,000  Level Fort Worth Center
07:42PM 32.9872 -98.5206 296° West 427 491 36,000  Level Fort Worth Center
07:43PM 33.0317 -98.6500 292° West 422 486 36,000  Level Fort Worth Center
07:44PM 33.0825 -98.7819 295° West 422 486 36,000  Level Fort Worth Center
07:45PM 33.1311 -98.9117 294° West 422 486 36,000  Level Fort Worth Center
07:46PM 33.1797 -99.0417 294° West 427 491 36,000  Level Fort Worth Center
07:47PM 33.2219 -99.1592 293° West 427 491 36,000  Level Fort Worth Center
07:48PM 33.2722 -99.2894 295° West 427 491 36,000  Level Fort Worth Center
07:49PM 33.3183 -99.4169 293° West 427 491 36,000  Level Fort Worth Center
07:50PM 33.3642 -99.5475 293° West 427 491 36,000  Level Fort Worth Center
07:51PM 33.4100 -99.6731 294° West 422 486 36,000  Level Fort Worth Center
07:52PM 33.4575 -99.8036 294° West 422 486 36,000  Level Fort Worth Center
07:53PM 33.5031 -99.9319 293° West 422 486 36,000  Level Fort Worth Center
07:54PM 33.5483 -100.0603 293° West 422 486 36,000  Level Fort Worth Center
07:55PM 33.5936 -100.1864 293° West 422 486 36,000  Level Fort Worth Center
07:56PM 33.6386 -100.3200 292° West 422 486 36,000  Level Fort Worth Center
07:57PM 33.6836 -100.4464 293° West 422 486 36,000  Level Fort Worth Center
07:58PM 33.7306 -100.5753 294° West 422 486 36,000  Level Fort Worth Center
07:59PM 33.7753 -100.7044 293° West 422 486 36,000  Level Fort Worth Center
08:01PM 33.8561 -100.9397 293° West 417 480 36,000  Level Albuquerque Center
08:02PM 33.9039 -101.0772 293° West 420 483 36,000  Level Albuquerque Center
08:03PM 33.9567 -101.2333 292° West 421 484 36,000  Level Albuquerque Center
08:04PM 33.9867 -101.3747 284° West 432 497 36,000  Level Albuquerque Center
08:05PM 34.0106 -101.5025 283° West 427 491 36,000  Level Fort Worth Center
08:06PM 34.0217 -101.6633 275° West 433 498 36,000  Level Fort Worth Center
08:07PM 34.0300 -101.7892 275° West 433 498 36,000  Level Fort Worth Center
08:08PM 34.0397 -101.9300 275° West 427 491 36,000  Level Fort Worth Center
08:09PM 34.0506 -102.0858 275° West 427 491 36,000  Level Fort Worth Center
08:10PM 34.0489 -102.2372 269° West 424 488 36,000  Level Albuquerque Center
08:11PM 34.0439 -102.3811 268° West 429 494 36,000  Level Albuquerque Center
08:12PM 34.0403 -102.5247 268° West 430 495 36,000  Level Albuquerque Center
08:13PM 34.0344 -102.6714 267° West 437 503 36,000  Level Albuquerque Center
08:14PM 34.0261 -102.8464 267° West 439 505 36,000  Level Albuquerque Center
08:15PM 33.9994 -102.9939 258° West 452 520 36,000  Level Albuquerque Center
08:16PM 33.9592 -103.1417 252° West 465 535 36,000  Level Albuquerque Center
08:17PM 33.9233 -103.2867 253° West 461 531 36,000  Level Albuquerque Center
08:18PM 33.8922 -103.4353 256° West 461 531 36,000  Level Albuquerque Center
08:19PM 33.8711 -103.5856 260° West 458 527 36,000  Level Albuquerque Center
08:20PM 33.8628 -103.7614 267° West 450 518 36,000  Level Albuquerque Center
08:21PM 33.8767 -103.9056 277° West 437 503 36,000  Level Albuquerque Center
08:22PM 33.9014 -104.0589 281° West 437 503 36,000  Level Albuquerque Center
08:23PM 33.9572 -104.1792 299° West 416 479 36,000  Level Albuquerque Center
08:24PM 34.0058 -104.2947 297° West 416 479 36,000 480 Level Albuquerque Center
08:25PM 34.0594 -104.4194 297° West 416 479 37,000 960 Climbing Albuquerque Center
08:26PM 34.1211 -104.5675 297° West 418 481 38,000 480 Climbing Albuquerque Center
08:27PM 34.1753 -104.6939 297° West 419 482 38,000  Level Albuquerque Center
08:28PM 34.2089 -104.8375 286° West 438 504 38,000  Level Albuquerque Center
08:29PM 34.2397 -104.9853 284° West 445 512 38,000  Level Albuquerque Center
08:30PM 34.2686 -105.1308 284° West 444 511 38,000  Level Albuquerque Center
08:32PM 34.2975 -105.2756 284° West 440 506 38,000  Level Albuquerque Center
08:33PM 34.3264 -105.4217 284° West 441 507 38,000  Level Albuquerque Center
08:34PM 34.3550 -105.5678 283° West 442 509 38,000  Level Albuquerque Center
08:35PM 34.3825 -105.7139 283° West 442 509 38,000  Level Albuquerque Center
08:36PM 34.4106 -105.8606 283° West 442 509 38,000  Level Albuquerque Center
08:37PM 34.4397 -106.0064 284° West 442 509 38,000  Level Albuquerque Center
08:38PM 34.4664 -106.1517 283° West 439 505 38,000  Level Albuquerque Center
08:39PM 34.4961 -106.3147 283° West 444 511 38,000  Level Albuquerque Center
08:40PM 34.5228 -106.4606 283° West 444 511 38,000  Level Albuquerque Center
08:41PM 34.5508 -106.6053 283° West 441 507 38,000  Level Albuquerque Center
08:42PM 34.5778 -106.7528 283° West 444 511 38,000  Level Albuquerque Center
08:43PM 34.6050 -106.9036 282° West 452 520 38,000  Level Albuquerque Center
08:44PM 34.6322 -107.0547 282° West 454 522 38,000  Level Albuquerque Center
08:45PM 34.6589 -107.2044 282° West 452 520 38,000  Level Albuquerque Center
08:46PM 34.6864 -107.3553 283° West 454 522 38,000  Level Albuquerque Center
08:47PM 34.7128 -107.5042 282° West 452 520 38,000  Level Albuquerque Center
08:48PM 34.7394 -107.6519 282° West 447 514 38,000  Level Albuquerque Center
08:49PM 34.7711 -107.8331 282° West 446 513 38,000  Level Albuquerque Center
08:50PM 34.7961 -107.9753 282° West 444 511 38,000  Level Albuquerque Center
08:51PM 34.8214 -108.1222 282° West 442 509 38,000  Level Albuquerque Center
08:52PM 34.8486 -108.2767 282° West 441 507 38,000  Level Albuquerque Center
08:53PM 34.8725 -108.4172 282° West 442 509 38,000  Level Albuquerque Center
08:54PM 34.9003 -108.5825 282° West 444 511 38,000  Level Albuquerque Center
08:55PM 34.9247 -108.7258 282° West 448 516 38,000  Level Albuquerque Center
08:56PM 34.9486 -108.8692 282° West 450 518 38,000  Level Albuquerque Center
08:57PM 34.9767 -109.0372 282° West 452 520 38,000  Level Albuquerque Center
08:58PM 35.0003 -109.1794 281° West 449 517 38,000  Level Albuquerque Center
08:59PM 35.0272 -109.3461 281° West 447 514 38,000  Level Albuquerque Center
09:00PM 35.0500 -109.4883 281° West 446 513 38,000  Level Albuquerque Center
09:01PM 35.0725 -109.6297 281° West 443 510 38,000  Level Albuquerque Center
09:02PM 35.0989 -109.8003 281° West 455 524 38,000  Level Albuquerque Center
09:03PM 35.1239 -109.9469 282° West 459 528 38,000  Level Albuquerque Center
09:04PM 35.1492 -110.1122 281° West 451 519 38,000  Level Albuquerque Center
09:05PM 35.1689 -110.2539 280° West 444 511 38,000  Level Albuquerque Center
09:06PM 35.1892 -110.3958 280° West 444 511 38,000  Level Albuquerque Center
09:07PM 35.2144 -110.5625 281° West 444 511 38,000  Level Albuquerque Center
09:08PM 35.2358 -110.7047 280° West 444 511 38,000 -540 Level Albuquerque Center
09:09PM 35.2600 -110.8717 280° West 446 513 36,900 -1,020 Descending Albuquerque Center
09:10PM 35.2811 -111.0172 280° West 451 519 36,000 -900 Descending Albuquerque Center
09:11PM 35.3025 -111.1642 280° West 461 531 35,100 -1,080 Descending Albuquerque Center
09:13PM 35.3278 -111.3353 280° West 452 520 33,900 -1,080 Descending Albuquerque Center
09:14PM 35.3494 -111.4864 280° West 456 525 32,900 -1,020 Descending Albuquerque Center
09:15PM 35.3706 -111.6322 280° West 446 513 31,900 -1,020 Descending Albuquerque Center
09:16PM 35.3892 -111.7728 279° West 430 495 30,900 -960 Descending Albuquerque Center
09:17PM 35.4086 -111.9111 280° West 419 482 30,000 -720 Descending Albuquerque Center
09:17PM 35.4169 -111.9678 280° West 421 484 30,000  Level Los Angeles Center
09:18PM 35.4372 -112.1131 280° West 432 497 30,000  Level Los Angeles Center
09:19PM 35.4492 -112.2017 279° West 438 504 30,000  Level Albuquerque Center
09:19PM 35.4569 -112.2619 279° West 443 510 30,000  Level Los Angeles Center
09:20PM 35.4775 -112.4108 280° West 447 514 30,000  Level Los Angeles Center
09:21PM 35.4978 -112.5597 280° West 448 516 30,000  Level Los Angeles Center
09:22PM 35.5189 -112.7125 280° West 447 514 30,000  Level Los Angeles Center
09:23PM 35.5417 -112.8942 279° West 449 517 30,000  Level Los Angeles Center
09:24PM 35.5583 -113.0200 279° West 445 512 30,000  Level Los Angeles Center
09:25PM 35.5817 -113.2014 279° West 447 514 30,000 -60 Level Los Angeles Center
09:26PM 35.5989 -113.3356 279° West 468 539 29,900 -1,560 Descending Los Angeles Center
09:27PM 35.6178 -113.4925 278° West 467 537 26,900 -3,360 Descending Los Angeles Center
09:28PM 35.6422 -113.6708 280° West 443 510 23,100 -3,180 Descending Los Angeles Center
09:29PM 35.6642 -113.8183 280° West 443 510 20,500 -2,400 Descending Los Angeles Center
09:30PM 35.6831 -113.9550 280° West 417 480 18,300 -2,400 Descending Los Angeles Center
09:31PM 35.7022 -114.0864 280° West 399 459 15,700 -2,580 Descending Los Angeles Center
09:32PM 35.7175 -114.1961 280° West 397 457 13,800 -2,160 Descending Los Angeles Center
09:32PM 35.7186 -114.2153 274° West 383 441 13,500 -1,200 Descending Los Angeles Center
09:33PM 35.7486 -114.3714 283° West 361 415 12,100 -840 Descending Los Angeles Center
09:34PM 35.8214 -114.4206 331° Northwest 344 396 11,800 -660 Descending Los Angeles Center
09:35PM 35.9025 -114.4578 340° North 320 368 10,900 -960 Descending Los Angeles Center
09:36PM 35.9289 -114.4617 353° North 302 348 10,600 -840 Descending Los Angeles Center
09:36PM 35.9789 -114.4664 356° North 281 323 10,100 -600 Descending Los Angeles Center
09:37PM 36.0044 -114.4708 352° North 271 312 10,000 -120 Descending Los Angeles Center
09:37PM 36.0514 -114.4747 356° North 266 306 10,000  Level Los Angeles Center
09:38PM 36.1178 -114.4911 349° North 258 297 10,000 -420 Level Los Angeles Center
09:39PM 36.1731 -114.5381 326° Northwest 242 278 9,200 -960 Descending Los Angeles Center
09:40PM 36.2056 -114.6125 298° West 250 288 8,100 -600 Descending Los Angeles Center
09:41PM 36.2081 -114.6906 272° West 234 269 8,100 -120 Level Los Angeles Center
09:42PM 36.1964 -114.7311 250° West 243 280 8,000 -540 Descending Los Angeles Center
09:42PM 36.1839 -114.7703 248° West 241 277 7,600 -720 Descending Los Angeles Center
09:43PM 36.1744 -114.8078 253° West 236 272 7,300 -840 Descending Los Angeles Center
09:44PM 36.1636 -114.8433 249° West 232 267 6,800 -1,020 Descending Los Angeles Center
09:44PM 36.1547 -114.8758 251° West 211 243 6,300 -840 Descending Los Angeles Center
09:45PM 36.1428 -114.9214 252° West 208 239 6,000 -240 Descending Los Angeles Center
09:45PM 36.1372 -114.9431 252° West 193 222 6,100 -420 Climbing Los Angeles Center
09:46PM 36.1311 -114.9822 259° West 191 220 5,600 -1,020 Descending Los Angeles Center
09:47PM 36.1389 -115.0461 279° West 189 217 4,400 -1,140 Descending Los Angeles Center
09:48PM 36.1389 -115.1050 270° West 180 207 3,400 -1,020 Descending Los Angeles Center
09:49PM 36.1139 -115.1469 234° Southwest 163 188 2,400 -1,020 Descending Los Angeles Center
09:51PM 36.0801 -115.1523 270° West  Level Estimated